createdAt,value
2019-05-21T00:02:16.128Z,19.57
2019-05-21T00:04:46.296Z,15.57
2019-05-21T00:07:37.230Z,15.77
2019-05-21T00:10:07.532Z,22.93
2019-05-21T00:12:37.666Z,21.73
2019-05-21T00:15:08.785Z,14.43
2019-05-21T00:17:39.075Z,18.40
2019-05-21T00:20:09.573Z,22.87
2019-05-21T00:22:39.795Z,24.17
2019-05-21T00:25:10.626Z,24.67
2019-05-21T00:27:40.821Z,17.43
2019-05-21T00:30:46.656Z,26.03
2019-05-21T00:33:52.758Z,22.00
2019-05-21T00:37:01.311Z,21.93
2019-05-21T00:40:07.334Z,18.13
2019-05-21T00:42:40.449Z,16.50
2019-05-21T00:45:28.937Z,27.13
2019-05-21T00:47:59.090Z,22.67
2019-05-21T00:50:49.568Z,17.67
2019-05-21T00:53:19.704Z,15.97
2019-05-21T00:58:39.381Z,24.03
2019-05-21T01:01:09.581Z,18.50
2019-05-21T01:03:43.157Z,16.13
2019-05-21T01:06:11.518Z,15.90
2019-05-21T01:08:41.695Z,14.20
2019-05-21T01:11:11.993Z,17.57
2019-05-21T01:13:42.107Z,20.20
2019-05-21T01:16:12.252Z,16.57
2019-05-21T01:18:42.457Z,17.47
2019-05-21T01:21:12.641Z,47.60
2019-05-21T01:23:42.752Z,19.17
2019-05-21T01:26:12.914Z,15.60
2019-05-21T01:28:43.066Z,15.50
2019-05-21T01:31:13.248Z,13.17
2019-05-21T01:34:03.787Z,20.27
2019-05-21T01:36:33.921Z,18.07
2019-05-21T01:39:23.028Z,13.57
2019-05-21T01:41:53.186Z,15.27
2019-05-21T01:44:23.372Z,16.10
2019-05-21T01:46:53.504Z,12.13
2019-05-21T01:49:23.617Z,15.03
2019-05-21T01:51:53.809Z,14.97
2019-05-21T01:54:23.946Z,13.07
2019-05-21T01:56:54.105Z,15.70
2019-05-21T01:59:24.243Z,17.87
2019-05-21T02:01:54.380Z,15.03
2019-05-21T02:04:24.505Z,19.20
2019-05-21T02:06:55.162Z,29.50
2019-05-21T02:09:25.518Z,81.87
2019-05-21T02:11:55.694Z,60.93
2019-05-21T02:14:25.840Z,14.57
2019-05-21T02:17:15.100Z,15.43
2019-05-21T02:19:45.263Z,22.47
2019-05-21T02:22:39.134Z,23.13
2019-05-21T02:25:05.331Z,25.13
2019-05-21T02:27:35.442Z,56.40
2019-05-21T02:30:07.823Z,18.90
2019-05-21T02:32:38.150Z,21.80
2019-05-21T02:35:08.493Z,19.97
2019-05-21T02:37:38.606Z,21.97
2019-05-21T02:40:10.259Z,30.67
2019-05-21T02:42:40.487Z,21.00
2019-05-21T02:45:11.147Z,18.77
2019-05-21T02:47:41.253Z,25.03
2019-05-21T02:50:12.816Z,27.53
2019-05-21T02:52:42.928Z,31.60
2019-05-21T02:55:13.090Z,30.87
2019-05-21T02:57:43.249Z,20.20
2019-05-21T03:00:39.269Z,29.43
2019-05-21T03:03:10.121Z,22.03
2019-05-21T03:05:50.966Z,25.67
2019-05-21T03:08:21.118Z,26.77
2019-05-21T03:11:09.117Z,23.47
2019-05-21T03:13:39.251Z,17.27
2019-05-21T03:16:09.483Z,19.37
2019-05-21T03:18:39.622Z,23.67
2019-05-21T03:21:09.800Z,22.77
2019-05-21T03:23:39.936Z,27.90
2019-05-21T03:26:10.133Z,26.40
2019-05-21T03:28:40.238Z,24.47
2019-05-21T03:31:10.353Z,23.53
2019-05-21T03:33:40.539Z,24.73
2019-05-21T03:36:10.641Z,26.57
2019-05-21T03:38:40.760Z,23.80
2019-05-21T03:41:10.882Z,22.67
2019-05-21T03:43:41.039Z,23.93
2019-05-21T03:46:11.182Z,20.30
2019-05-21T03:49:03.756Z,21.20
2019-05-21T03:51:34.225Z,24.47
2019-05-21T03:54:31.584Z,20.00
2019-05-21T03:57:01.697Z,23.63
2019-05-21T03:59:50.625Z,21.10
2019-05-21T04:02:20.850Z,20.27
2019-05-21T04:05:21.058Z,26.57
2019-05-21T04:07:51.185Z,25.83
2019-05-21T04:10:36.972Z,18.30
2019-05-21T04:13:07.975Z,20.77
2019-05-21T04:16:14.938Z,21.53
2019-05-21T04:19:04.030Z,20.83
2019-05-21T04:21:34.186Z,21.87
2019-05-21T04:24:08.498Z,19.67
2019-05-21T04:26:52.394Z,18.10
2019-05-21T04:29:22.599Z,24.27
2019-05-21T04:32:05.009Z,23.50
2019-05-21T04:34:35.122Z,18.47
2019-05-21T04:37:10.932Z,18.30
2019-05-21T04:39:37.066Z,20.63
2019-05-21T04:42:07.239Z,21.73
2019-05-21T04:44:41.780Z,18.20
2019-05-21T04:47:12.182Z,19.73
2019-05-21T04:49:42.321Z,24.17
2019-05-21T04:52:12.489Z,21.37
2019-05-21T04:54:42.649Z,18.23
2019-05-21T04:57:12.825Z,21.20
2019-05-21T04:59:42.976Z,22.93
2019-05-21T05:02:13.081Z,20.37
2019-05-21T05:04:46.315Z,21.90
2019-05-21T05:07:27.789Z,19.47
2019-05-21T05:10:06.945Z,21.87
2019-05-21T05:12:37.041Z,19.43
2019-05-21T05:15:07.779Z,17.20
2019-05-21T05:17:37.915Z,19.00
2019-05-21T05:20:08.256Z,20.43
2019-05-21T05:22:38.412Z,16.53
2019-05-21T05:25:08.703Z,16.00
2019-05-21T05:27:38.872Z,17.60
2019-05-21T05:30:09.242Z,14.17
2019-05-21T05:32:39.719Z,16.20
2019-05-21T05:35:09.924Z,16.70
2019-05-21T05:37:46.356Z,16.60
2019-05-21T05:40:13.570Z,14.77
2019-05-21T05:42:44.059Z,12.07
2019-05-21T05:45:15.117Z,11.67
2019-05-21T05:48:05.672Z,13.93
2019-05-21T05:50:38.625Z,13.87
2019-05-21T05:53:39.983Z,12.70
2019-05-21T05:56:10.232Z,10.57
2019-05-21T05:58:51.545Z,13.57
2019-05-21T06:01:21.783Z,12.53
2019-05-21T06:03:51.901Z,10.33
2019-05-21T06:06:22.044Z,8.90
2019-05-21T06:08:52.197Z,14.53
2019-05-21T06:11:22.340Z,10.57
2019-05-21T06:13:52.485Z,13.97
2019-05-21T06:16:22.639Z,14.13
2019-05-21T06:18:52.791Z,10.73
2019-05-21T06:21:22.946Z,14.73
2019-05-21T06:23:53.091Z,9.80
2019-05-21T06:26:23.233Z,13.43
2019-05-21T06:28:53.442Z,10.63
2019-05-21T06:31:23.571Z,9.07
2019-05-21T06:33:54.322Z,9.13
2019-05-21T06:36:47.397Z,9.30
2019-05-21T06:39:17.547Z,8.87
2019-05-21T06:42:07.498Z,10.47
2019-05-21T06:44:37.923Z,8.23
2019-05-21T06:47:08.280Z,8.77
2019-05-21T06:49:38.745Z,11.50
2019-05-21T06:52:08.952Z,8.77
2019-05-21T06:54:42.091Z,11.83
2019-05-21T06:57:12.317Z,9.17
2019-05-21T06:59:42.470Z,10.63
2019-05-21T07:02:12.626Z,7.60
2019-05-21T07:04:42.742Z,10.20
2019-05-21T07:07:12.883Z,13.53
2019-05-21T07:09:43.059Z,9.50
2019-05-21T07:12:13.232Z,8.03
2019-05-21T07:14:54.242Z,11.27
2019-05-21T07:17:24.472Z,8.60
2019-05-21T07:20:09.283Z,12.57
2019-05-21T07:22:26.514Z,8.67
2019-05-21T07:24:56.701Z,10.20
2019-05-21T07:27:26.866Z,11.57
2019-05-21T07:30:04.935Z,10.07
2019-05-21T07:32:35.194Z,9.03
2019-05-21T07:35:05.821Z,8.37
2019-05-21T07:37:36.038Z,7.33
2019-05-21T07:40:08.156Z,8.77
2019-05-21T07:42:38.373Z,9.83
2019-05-21T07:45:08.646Z,7.83
2019-05-21T07:47:50.549Z,9.80
2019-05-21T07:50:20.685Z,9.03
2019-05-21T07:53:12.872Z,10.97
2019-05-21T07:55:43.058Z,11.87
2019-05-21T07:58:19.757Z,8.17
2019-05-21T08:00:49.885Z,8.10
2019-05-21T08:03:20.053Z,8.23
2019-05-21T08:05:50.184Z,9.03
2019-05-21T08:08:20.370Z,8.87
2019-05-21T08:10:50.583Z,7.53
2019-05-21T08:13:20.961Z,9.20
2019-05-21T08:15:51.376Z,8.20
2019-05-21T08:18:21.525Z,8.67
2019-05-21T08:20:51.655Z,9.63
2019-05-21T08:23:21.897Z,10.00
2019-05-21T08:25:52.088Z,10.33
2019-05-21T08:28:22.242Z,6.53
2019-05-21T08:31:20.613Z,9.03
2019-05-21T08:33:50.786Z,5.63
2019-05-21T08:36:41.275Z,9.60
2019-05-21T08:39:26.071Z,9.23
2019-05-21T08:41:43.194Z,9.63
2019-05-21T08:44:13.332Z,6.50
2019-05-21T08:46:43.573Z,7.30
2019-05-21T08:49:14.037Z,6.30
2019-05-21T08:51:45.116Z,10.13
2019-05-21T08:54:16.858Z,10.03
2019-05-21T08:56:47.028Z,5.60
2019-05-21T08:59:17.205Z,7.63
2019-05-21T09:01:47.322Z,8.43
2019-05-21T09:04:17.562Z,6.17
2019-05-21T09:06:47.720Z,4.90
2019-05-21T09:09:49.034Z,8.93
2019-05-21T09:12:06.226Z,7.37
2019-05-21T09:14:36.362Z,5.13
2019-05-21T09:17:06.496Z,8.87
2019-05-21T09:19:36.914Z,6.80
2019-05-21T09:22:07.122Z,5.17
2019-05-21T09:24:37.269Z,9.07
2019-05-21T09:27:07.380Z,12.23
2019-05-21T09:29:37.556Z,11.53
2019-05-21T09:32:07.667Z,6.13
2019-05-21T09:34:48.188Z,5.20
2019-05-21T09:37:19.261Z,5.93
2019-05-21T09:39:41.493Z,6.80
2019-05-21T09:42:11.638Z,10.47
2019-05-21T09:44:41.860Z,7.37
2019-05-21T09:47:12.012Z,7.77
2019-05-21T09:49:42.172Z,6.07
2019-05-21T09:52:14.604Z,5.70
2019-05-21T09:54:44.787Z,8.43
2019-05-21T09:57:17.968Z,7.30
2019-05-21T09:59:56.671Z,6.53
2019-05-21T10:02:29.024Z,5.63
2019-05-21T10:05:06.461Z,6.77
2019-05-21T10:07:40.297Z,9.20
2019-05-21T10:10:30.601Z,5.87
2019-05-21T10:13:00.721Z,7.47
2019-05-21T10:15:51.853Z,7.33
2019-05-21T10:18:22.022Z,7.33
2019-05-21T10:20:54.858Z,6.50
2019-05-21T10:23:25.113Z,8.90
2019-05-21T10:25:55.220Z,8.00
2019-05-21T10:28:25.453Z,6.50
2019-05-21T10:30:55.551Z,8.23
2019-05-21T10:33:25.733Z,5.80
2019-05-21T10:35:55.919Z,7.03
2019-05-21T10:38:26.055Z,7.17
2019-05-21T10:40:56.228Z,8.93
2019-05-21T10:43:26.425Z,6.57
2019-05-21T10:45:56.600Z,5.80
2019-05-21T10:48:38.624Z,6.73
2019-05-21T10:51:08.896Z,9.33
2019-05-21T10:53:39.340Z,6.87
2019-05-21T10:56:09.448Z,6.73
2019-05-21T10:58:39.582Z,8.97
2019-05-21T11:01:25.566Z,7.03
2019-05-21T11:04:29.894Z,11.47
2019-05-21T11:07:00.033Z,7.67
2019-05-21T11:09:30.765Z,9.47
2019-05-21T11:12:00.921Z,5.73
2019-05-21T11:14:31.085Z,7.20
2019-05-21T11:17:01.235Z,11.53
2019-05-21T11:19:31.408Z,6.33
2019-05-21T11:22:23.077Z,5.70
2019-05-21T11:24:53.342Z,8.47
2019-05-21T11:27:23.517Z,8.97
2019-05-21T11:29:53.709Z,10.17
2019-05-21T11:32:23.828Z,9.47
2019-05-21T11:34:54.042Z,8.93
2019-05-21T11:37:24.199Z,7.53
2019-05-21T11:39:54.312Z,7.87
2019-05-21T11:42:24.574Z,10.73
2019-05-21T11:44:55.203Z,8.37
2019-05-21T11:47:25.515Z,7.70
2019-05-21T11:49:55.630Z,8.20
2019-05-21T11:52:25.849Z,12.40
2019-05-21T11:55:05.584Z,7.73
2019-05-21T11:57:34.785Z,7.10
2019-05-21T12:00:06.384Z,5.23
2019-05-21T12:02:36.509Z,7.90
2019-05-21T12:05:07.526Z,12.30
2019-05-21T12:07:37.654Z,5.23
2019-05-21T12:10:07.941Z,7.50
2019-05-21T12:12:38.117Z,6.47
2019-05-21T12:15:11.096Z,6.50
2019-05-21T12:17:42.725Z,7.33
2019-05-21T12:20:14.610Z,9.50
2019-05-21T12:22:58.156Z,9.07
2019-05-21T12:25:28.338Z,8.47
2019-05-21T12:27:58.438Z,7.17
2019-05-21T12:30:28.593Z,7.90
2019-05-21T12:32:58.711Z,8.40
2019-05-21T12:35:28.828Z,6.03
2019-05-21T12:37:59.002Z,9.47
2019-05-21T12:40:30.012Z,8.43
2019-05-21T12:43:00.152Z,8.87
2019-05-21T12:45:30.286Z,8.03
2019-05-21T12:48:00.565Z,6.80
2019-05-21T12:50:46.536Z,9.70
2019-05-21T12:53:17.034Z,8.57
2019-05-21T12:55:47.208Z,9.57
2019-05-21T12:58:17.380Z,6.93
2019-05-21T13:00:47.511Z,8.93
2019-05-21T13:03:17.645Z,7.03
2019-05-21T13:05:47.846Z,9.30
2019-05-21T13:08:18.004Z,6.77
2019-05-21T13:10:48.128Z,11.30
2019-05-21T13:13:18.289Z,7.67
2019-05-21T13:15:48.399Z,7.43
2019-05-21T13:18:38.460Z,6.73
2019-05-21T13:21:08.413Z,5.50
2019-05-21T13:23:37.186Z,8.47
2019-05-21T13:26:08.677Z,8.67
2019-05-21T13:28:39.198Z,7.13
2019-05-21T13:31:09.568Z,5.27
2019-05-21T13:33:39.659Z,5.63
2019-05-21T13:36:09.995Z,6.43
2019-05-21T13:38:40.152Z,9.27
2019-05-21T13:41:11.496Z,6.97
2019-05-21T13:43:41.657Z,11.53
2019-05-21T13:46:16.013Z,5.83
2019-05-21T13:48:47.012Z,7.60
2019-05-21T13:51:18.241Z,8.10
2019-05-21T13:53:48.389Z,7.93
2019-05-21T13:56:18.837Z,7.40
2019-05-21T13:58:48.962Z,7.70
2019-05-21T14:01:20.064Z,6.30
2019-05-21T14:03:50.165Z,10.70
2019-05-21T14:06:20.600Z,8.67
2019-05-21T14:08:51.144Z,7.43
2019-05-21T14:11:21.396Z,5.47
2019-05-21T14:13:51.663Z,7.33
2019-05-21T14:16:21.890Z,7.77
2019-05-21T14:18:52.084Z,9.57
2019-05-21T14:21:22.189Z,6.27
2019-05-21T14:23:52.369Z,8.77
2019-05-21T14:26:22.518Z,12.03
2019-05-21T14:28:52.666Z,9.83
2019-05-21T14:31:22.845Z,9.23
2019-05-21T14:33:53.115Z,7.60
2019-05-21T14:36:26.066Z,7.67
2019-05-21T14:38:56.205Z,9.43
2019-05-21T14:41:33.315Z,6.63
2019-05-21T14:43:58.225Z,7.77
2019-05-21T14:46:28.407Z,7.13
2019-05-21T14:48:58.726Z,7.00
2019-05-21T14:51:28.954Z,8.97
2019-05-21T14:54:03.444Z,7.47
2019-05-21T14:56:33.720Z,8.50
2019-05-21T14:59:04.366Z,9.53
2019-05-21T15:01:34.416Z,5.77
2019-05-21T15:04:04.797Z,9.17
2019-05-21T15:06:35.048Z,9.97
2019-05-21T15:09:07.992Z,9.37
2019-05-21T15:11:38.093Z,10.73
2019-05-21T15:14:09.577Z,9.43
2019-05-21T15:16:39.662Z,8.60
2019-05-21T15:19:09.955Z,9.23
2019-05-21T15:21:47.433Z,8.63
2019-05-21T15:24:17.661Z,12.37
2019-05-21T15:26:49.251Z,8.43
2019-05-21T15:29:19.529Z,10.57
2019-05-21T15:31:49.679Z,6.13
2019-05-21T15:34:19.799Z,5.73
2019-05-21T15:36:52.191Z,7.53
2019-05-21T15:39:22.309Z,4.73
2019-05-21T15:42:03.011Z,5.07
2019-05-21T15:44:29.333Z,5.67
2019-05-21T15:46:59.537Z,4.27
2019-05-21T15:49:35.990Z,4.90
2019-05-21T15:52:01.453Z,8.97
2019-05-21T15:54:31.624Z,10.20
2019-05-21T15:57:01.854Z,8.97
2019-05-21T15:59:32.061Z,10.30
2019-05-21T16:02:02.365Z,11.33
2019-05-21T16:04:32.588Z,7.73
2019-05-21T16:07:02.749Z,10.73
2019-05-21T16:09:46.202Z,7.83
2019-05-21T16:12:16.357Z,11.73
2019-05-21T16:15:02.355Z,11.50
2019-05-21T16:17:23.160Z,11.80
2019-05-21T16:19:53.317Z,9.00
2019-05-21T16:22:23.431Z,8.53
2019-05-21T16:24:53.585Z,9.27
2019-05-21T16:27:23.764Z,14.47
2019-05-21T16:29:54.674Z,8.13
2019-05-21T16:32:24.875Z,11.67
2019-05-21T16:34:55.443Z,8.53
2019-05-21T16:37:25.792Z,11.20
2019-05-21T16:39:55.969Z,9.07
2019-05-21T16:42:26.115Z,8.70
2019-05-21T16:44:56.229Z,10.70
2019-05-21T16:47:45.804Z,8.03
2019-05-21T16:50:08.797Z,10.90
2019-05-21T16:52:58.440Z,9.27
2019-05-21T16:55:28.537Z,10.23
2019-05-21T16:58:21.981Z,9.87
2019-05-21T17:00:52.149Z,11.53
2019-05-21T17:03:59.963Z,9.40
2019-05-21T17:06:24.784Z,11.93
2019-05-21T17:09:12.049Z,13.10
2019-05-21T17:11:42.206Z,10.57
2019-05-21T17:14:35.479Z,10.03
2019-05-21T17:17:05.632Z,12.03
2019-05-21T17:19:56.059Z,10.93
2019-05-21T17:22:26.262Z,12.27
2019-05-21T17:25:03.295Z,13.90
2019-05-21T17:27:28.197Z,14.63
2019-05-21T17:29:58.313Z,12.03
2019-05-21T17:32:28.540Z,13.63
2019-05-21T17:34:58.705Z,12.77
2019-05-21T17:37:28.895Z,14.17
2019-05-21T17:39:59.800Z,13.10
2019-05-21T17:42:30.392Z,15.00
2019-05-21T17:45:54.337Z,16.87
2019-05-21T17:48:24.965Z,20.68
2019-05-21T17:50:55.854Z,12.63
2019-05-21T17:53:26.527Z,12.90
2019-05-21T17:55:57.038Z,12.27
2019-05-21T17:58:27.482Z,22.17
2019-05-21T18:01:01.346Z,16.70
2019-05-21T18:03:32.450Z,17.00
2019-05-21T18:06:04.086Z,14.67
2019-05-21T18:08:34.774Z,15.83
2019-05-21T18:11:05.784Z,14.37
2019-05-21T18:13:36.244Z,12.23
2019-05-21T18:16:08.395Z,14.67
2019-05-21T18:18:41.652Z,13.60
2019-05-21T18:21:12.214Z,14.73
2019-05-21T18:23:58.491Z,12.07
2019-05-21T18:26:28.646Z,16.70
2019-05-21T18:29:20.495Z,19.27
2019-05-21T18:31:51.449Z,10.77
2019-05-21T18:34:31.677Z,17.00
2019-05-21T18:37:02.214Z,19.53
2019-05-21T18:39:32.994Z,20.17
2019-05-21T18:42:03.360Z,14.43
2019-05-21T18:44:33.490Z,15.00
2019-05-21T18:47:04.045Z,18.70
2019-05-21T18:49:34.303Z,15.07
2019-05-21T18:52:05.232Z,17.97
2019-05-21T18:54:35.580Z,14.30
2019-05-21T18:57:08.467Z,18.17
2019-05-21T18:59:39.115Z,14.10
2019-05-21T19:02:11.049Z,15.73
2019-05-21T19:04:41.685Z,17.93
2019-05-21T19:07:13.079Z,24.17
2019-05-21T19:09:43.349Z,40.67
2019-05-21T19:12:38.249Z,44.80
2019-05-21T19:15:07.638Z,38.13
2019-05-21T19:17:54.576Z,55.83
2019-05-21T19:20:24.754Z,22.63
2019-05-21T19:22:57.816Z,22.93
2019-05-21T19:25:27.913Z,22.60
2019-05-21T19:27:58.199Z,22.57
2019-05-21T19:30:28.544Z,16.30
2019-05-21T19:32:58.711Z,16.23
2019-05-21T19:35:29.021Z,16.90
2019-05-21T19:37:59.196Z,17.50
2019-05-21T19:40:29.669Z,26.97
2019-05-21T19:42:59.844Z,23.87
2019-05-21T19:45:31.515Z,21.00
2019-05-21T19:48:01.942Z,22.03
2019-05-21T19:50:32.630Z,23.27
2019-05-21T19:53:02.781Z,20.67
2019-05-21T19:55:48.851Z,19.63
2019-05-21T19:58:18.992Z,18.03
2019-05-21T20:01:10.577Z,21.33
2019-05-21T20:03:41.085Z,23.53
2019-05-21T20:06:34.496Z,21.60
2019-05-21T20:09:06.722Z,22.63
2019-05-21T20:11:59.305Z,25.67
2019-05-21T20:14:31.152Z,29.07
2019-05-21T20:17:22.327Z,35.97
2019-05-21T20:19:53.154Z,31.70
2019-05-21T20:22:47.031Z,33.77
2019-05-21T20:25:17.676Z,27.83
2019-05-21T20:28:10.814Z,27.30
2019-05-21T20:30:44.759Z,26.37
2019-05-21T20:33:38.001Z,29.27
2019-05-21T20:36:09.038Z,32.07
2019-05-21T20:38:55.507Z,26.07
2019-05-21T20:41:25.685Z,24.67
2019-05-21T20:44:06.336Z,25.73
2019-05-21T20:46:35.836Z,21.70
2019-05-21T20:49:06.313Z,28.13
2019-05-21T20:51:37.587Z,52.13
2019-05-21T20:54:08.136Z,23.83
2019-05-21T20:56:39.229Z,25.67
2019-05-21T20:59:09.473Z,23.90
2019-05-21T21:01:40.708Z,28.47
2019-05-21T21:04:10.842Z,31.40
2019-05-21T21:06:41.773Z,23.67
2019-05-21T21:09:12.313Z,29.40
2019-05-21T21:11:43.056Z,24.53
2019-05-21T21:14:18.320Z,21.37
2019-05-21T21:16:48.358Z,25.17
2019-05-21T21:19:18.690Z,23.20
2019-05-21T21:22:11.720Z,21.53
2019-05-21T21:24:41.897Z,21.53
2019-05-21T21:27:33.854Z,24.40
2019-05-21T21:30:04.275Z,23.70
2019-05-21T21:32:56.932Z,23.20
2019-05-21T21:35:27.361Z,27.27
2019-05-21T21:38:08.132Z,23.13
2019-05-21T21:40:39.244Z,22.57
2019-05-21T21:43:09.413Z,21.40
2019-05-21T21:45:39.736Z,20.03
2019-05-21T21:48:10.001Z,20.10
2019-05-21T21:50:41.668Z,21.20
2019-05-21T21:53:12.204Z,25.20
2019-05-21T21:55:42.549Z,20.60
2019-05-21T21:58:12.879Z,23.23
2019-05-21T22:01:28.965Z,23.47
2019-05-21T22:04:02.611Z,23.13
2019-05-21T22:06:35.613Z,22.20
2019-05-21T22:09:09.346Z,23.27
2019-05-21T22:11:39.613Z,22.60
2019-05-21T22:14:10.082Z,21.47
2019-05-21T22:16:41.108Z,22.67
2019-05-21T22:19:11.921Z,25.83
2019-05-21T22:21:42.052Z,22.60
2019-05-21T22:24:12.989Z,23.10
2019-05-21T22:26:57.241Z,21.83
2019-05-21T22:29:27.510Z,22.47
2019-05-21T22:32:24.102Z,21.40
2019-05-21T22:34:54.204Z,22.33
2019-05-21T22:37:44.823Z,24.57
2019-05-21T22:40:15.580Z,28.60
2019-05-21T22:43:14.145Z,34.53
2019-05-21T22:45:44.328Z,21.47
2019-05-21T22:48:34.757Z,25.80
2019-05-21T22:51:04.901Z,32.50
2019-05-21T22:54:05.621Z,28.00
2019-05-21T22:56:35.769Z,27.53
2019-05-21T22:59:21.638Z,43.40
2019-05-21T23:01:53.950Z,30.80
2019-05-21T23:04:44.085Z,29.00
2019-05-21T23:07:15.361Z,28.40
2019-05-21T23:10:07.914Z,31.27
2019-05-21T23:12:39.834Z,39.50
2019-05-21T23:15:30.284Z,31.37
2019-05-21T23:18:00.740Z,41.40
2019-05-21T23:20:51.967Z,35.63
2019-05-21T23:23:24.330Z,31.93
2019-05-21T23:26:20.922Z,27.67
2019-05-21T23:28:41.324Z,31.17
2019-05-21T23:31:13.043Z,25.80
2019-05-21T23:33:43.364Z,42.87
2019-05-21T23:36:13.538Z,30.83
2019-05-21T23:38:43.691Z,42.00
2019-05-21T23:41:13.847Z,40.50
2019-05-21T23:43:43.995Z,35.00
2019-05-21T23:46:15.654Z,42.60
2019-05-21T23:48:45.906Z,31.70
2019-05-21T23:51:16.054Z,42.93
2019-05-21T23:53:46.273Z,45.43
2019-05-21T23:56:16.480Z,42.83
2019-05-21T23:58:48.229Z,33.60
